Seward, AK

6:10 AM AKST on December 05, 2016 (GMT -0900)
| | Change Station

Elev -9999 ft 0.00 °N, 0.00 °E | Updated

Overcast
Overcast
°F
Feels Like °F
N
Wind Variable Wind from North
Gusts mph

Today
High -- | Low -- °F
--% Chance of Precip.
Yesterday
High -- | Low -- °F
Precip. -- in
Pressure 30.32 in
Visibility 10.0 miles
Clouds Overcast 3700 ft
Dew Point Not available.
Humidity Not available.
Rainfall --
Snow Depth Not available.
9:42 AM 3:54 PM
Waxing Crescent, 32% visible
METAR PAWD 051453Z AUTO 01016G21KT 10SM OVC037 M12/M17 A3032 RMK AO2 SLP267 T11221172 56005 TSNO
Pressure 30.32 in
Visibility 10.0 miles
Clouds Overcast 3700 ft
Dew Point Not available.
Humidity Not available.
Rainfall --
Snow Depth Not available.
9:42 AM 3:54 PM
Waxing Crescent, 32% visible
METAR PAWD 051453Z AUTO 01016G21KT 10SM OVC037 M12/M17 A3032 RMK AO2 SLP267 T11221172 56005 TSNO

10-Day Weather Forecast

Almanac

Astronomy

Dec. 05, 2016 Rise Set
Actual Time
Civil Twilight
Nautical Twilight
Astronomical Twilight
Moon
Length of Visible Light
Length of Day
Tomorrow will be .
, % of the Moon is Illuminated

Today's Extremes

State Highs State Lows

Community

WunderPhotos

Upload Photos

1,955,780 photos uploaded!

WunderBlog® & News

Nearby

Air Quality

  Air Quality AQ Index Pollutant
Not available.

Snow Depth

Station Depth Elevation

Earthquake Activity

City Distance Mag. Time & Date
Minimum magnitude displayed is 2.5.

Coastal Water Temperatures

Place Temperature

Stations

Nearby Weather Stations

Station Location Temp. Windchill Dew Point Humidity Wind Precip. Elev Updated Type
                   

Watches & Warnings

There are currently no watches in effect.